sensor_id;sensor_type;location;lat;lon;timestamp;pressure;altitude;pressure_sealevel;temperature;humidity
1401;BME280;46518;48.842;8.926;2022-11-20T00:02:16;96598.66;;;6.59;90.32
1401;BME280;46518;48.842;8.926;2022-11-20T00:04:44;96594.84;;;6.50;90.67
1401;BME280;46518;48.842;8.926;2022-11-20T00:07:14;96620.94;;;6.61;90.90
1401;BME280;46518;48.842;8.926;2022-11-20T00:09:42;96611.97;;;6.57;90.84
1401;BME280;46518;48.842;8.926;2022-11-20T00:12:10;96596.00;;;6.42;91.10
1401;BME280;46518;48.842;8.926;2022-11-20T00:14:38;96603.94;;;6.47;91.46
1401;BME280;46518;48.842;8.926;2022-11-20T00:17:07;96593.22;;;6.48;91.54
1401;BME280;46518;48.842;8.926;2022-11-20T00:19:36;96615.25;;;6.64;91.66
1401;BME280;46518;48.842;8.926;2022-11-20T00:22:04;96625.25;;;6.67;90.96
1401;BME280;46518;48.842;8.926;2022-11-20T00:24:33;96603.28;;;6.68;90.57
1401;BME280;46518;48.842;8.926;2022-11-20T00:27:08;96612.16;;;6.79;89.75
1401;BME280;46518;48.842;8.926;2022-11-20T00:29:36;96606.44;;;6.82;89.21
1401;BME280;46518;48.842;8.926;2022-11-20T00:32:05;96607.88;;;6.90;88.09
1401;BME280;46518;48.842;8.926;2022-11-20T00:34:33;96607.00;;;6.84;87.99
1401;BME280;46518;48.842;8.926;2022-11-20T00:37:01;96597.47;;;6.78;87.63
1401;BME280;46518;48.842;8.926;2022-11-20T00:39:29;96612.06;;;6.91;87.26
1401;BME280;46518;48.842;8.926;2022-11-20T00:41:59;96615.88;;;6.83;87.44
1401;BME280;46518;48.842;8.926;2022-11-20T00:44:27;96612.28;;;6.73;87.72
1401;BME280;46518;48.842;8.926;2022-11-20T00:46:55;96620.00;;;6.79;87.54
1401;BME280;46518;48.842;8.926;2022-11-20T00:49:23;96617.13;;;6.81;86.97
1401;BME280;46518;48.842;8.926;2022-11-20T00:51:51;96621.34;;;6.82;86.37
1401;BME280;46518;48.842;8.926;2022-11-20T00:54:19;96624.19;;;6.80;86.31
1401;BME280;46518;48.842;8.926;2022-11-20T00:56:47;96617.28;;;6.74;86.06
1401;BME280;46518;48.842;8.926;2022-11-20T00:59:17;96628.19;;;6.71;86.35
1401;BME280;46518;48.842;8.926;2022-11-20T01:01:46;96629.34;;;6.63;86.79
1401;BME280;46518;48.842;8.926;2022-11-20T01:04:14;96631.53;;;6.66;86.87
1401;BME280;46518;48.842;8.926;2022-11-20T01:06:42;96639.13;;;6.68;86.70
1401;BME280;46518;48.842;8.926;2022-11-20T01:09:16;96629.91;;;6.65;86.65
1401;BME280;46518;48.842;8.926;2022-11-20T01:11:45;96626.03;;;6.68;86.40
1401;BME280;46518;48.842;8.926;2022-11-20T01:14:15;96628.66;;;6.68;86.53
1401;BME280;46518;48.842;8.926;2022-11-20T01:16:47;96628.78;;;6.61;86.88
1401;BME280;46518;48.842;8.926;2022-11-20T01:19:18;96634.34;;;6.65;86.63
1401;BME280;46518;48.842;8.926;2022-11-20T01:21:50;96636.41;;;6.63;86.27
1401;BME280;46518;48.842;8.926;2022-11-20T01:24:19;96634.94;;;6.55;86.20
1401;BME280;46518;48.842;8.926;2022-11-20T01:26:50;96626.97;;;6.62;85.87
1401;BME280;46518;48.842;8.926;2022-11-20T01:29:21;96633.69;;;6.58;85.32
1401;BME280;46518;48.842;8.926;2022-11-20T01:31:51;96628.56;;;6.51;85.31
1401;BME280;46518;48.842;8.926;2022-11-20T01:34:21;96623.03;;;6.47;85.38
1401;BME280;46518;48.842;8.926;2022-11-20T01:36:50;96624.28;;;6.45;84.74
1401;BME280;46518;48.842;8.926;2022-11-20T01:39:23;96640.28;;;6.48;84.65
1401;BME280;46518;48.842;8.926;2022-11-20T01:41:53;96621.22;;;6.36;84.47
1401;BME280;46518;48.842;8.926;2022-11-20T01:44:51;96630.50;;;6.56;83.99
1401;BME280;46518;48.842;8.926;2022-11-20T01:47:30;96626.97;;;6.62;84.01
1401;BME280;46518;48.842;8.926;2022-11-20T01:50:04;96633.19;;;6.73;83.88
1401;BME280;46518;48.842;8.926;2022-11-20T01:52:34;96629.44;;;6.68;83.97
1401;BME280;46518;48.842;8.926;2022-11-20T01:55:06;96627.66;;;6.57;84.17
1401;BME280;46518;48.842;8.926;2022-11-20T01:57:35;96624.69;;;6.54;83.98
1401;BME280;46518;48.842;8.926;2022-11-20T02:00:08;96631.63;;;6.60;84.52
1401;BME280;46518;48.842;8.926;2022-11-20T02:02:44;96635.72;;;6.56;84.42
1401;BME280;46518;48.842;8.926;2022-11-20T02:05:22;96632.91;;;6.57;84.18
1401;BME280;46518;48.842;8.926;2022-11-20T02:07:52;96630.13;;;6.64;84.45
1401;BME280;46518;48.842;8.926;2022-11-20T02:10:22;96639.22;;;6.61;84.91
1401;BME280;46518;48.842;8.926;2022-11-20T02:12:50;96630.69;;;6.66;84.87
1401;BME280;46518;48.842;8.926;2022-11-20T02:15:36;96631.81;;;6.82;84.18
1401;BME280;46518;48.842;8.926;2022-11-20T02:18:06;96626.22;;;6.78;83.47
1401;BME280;46518;48.842;8.926;2022-11-20T02:20:34;96634.25;;;6.88;83.76
1401;BME280;46518;48.842;8.926;2022-11-20T02:23:05;96636.00;;;6.83;83.16
1401;BME280;46518;48.842;8.926;2022-11-20T02:25:38;96636.56;;;6.85;82.76
1401;BME280;46518;48.842;8.926;2022-11-20T02:28:07;96630.91;;;6.76;82.69
1401;BME280;46518;48.842;8.926;2022-11-20T02:30:36;96632.81;;;6.81;82.63
1401;BME280;46518;48.842;8.926;2022-11-20T02:33:04;96636.94;;;6.77;82.10
1401;BME280;46518;48.842;8.926;2022-11-20T02:35:43;96639.56;;;6.77;81.76
1401;BME280;46518;48.842;8.926;2022-11-20T02:38:12;96633.75;;;6.75;81.61
1401;BME280;46518;48.842;8.926;2022-11-20T02:40:42;96622.63;;;6.67;81.86
1401;BME280;46518;48.842;8.926;2022-11-20T02:43:10;96634.53;;;6.75;82.45
1401;BME280;46518;48.842;8.926;2022-11-20T02:45:39;96640.09;;;6.79;82.15
1401;BME280;46518;48.842;8.926;2022-11-20T02:48:16;96637.25;;;6.80;82.70
1401;BME280;46518;48.842;8.926;2022-11-20T02:50:44;96637.25;;;6.80;82.87
1401;BME280;46518;48.842;8.926;2022-11-20T02:53:12;96637.06;;;6.70;82.74
1401;BME280;46518;48.842;8.926;2022-11-20T02:55:41;96611.03;;;6.63;83.09
1401;BME280;46518;48.842;8.926;2022-11-20T02:58:09;96620.91;;;6.73;82.56
1401;BME280;46518;48.842;8.926;2022-11-20T03:00:37;96631.53;;;6.66;82.61
1401;BME280;46518;48.842;8.926;2022-11-20T03:03:05;96627.06;;;6.67;82.54
1401;BME280;46518;48.842;8.926;2022-11-20T03:05:34;96622.06;;;6.65;82.56
1401;BME280;46518;48.842;8.926;2022-11-20T03:08:02;96620.81;;;6.68;82.40
1401;BME280;46518;48.842;8.926;2022-11-20T03:10:30;96624.38;;;6.62;82.50
1401;BME280;46518;48.842;8.926;2022-11-20T03:12:59;96601.19;;;6.54;81.93
1401;BME280;46518;48.842;8.926;2022-11-20T03:15:29;96619.03;;;6.57;82.10
1401;BME280;46518;48.842;8.926;2022-11-20T03:17:57;96614.97;;;6.49;82.09
1401;BME280;46518;48.842;8.926;2022-11-20T03:20:25;96610.38;;;6.56;81.79
1401;BME280;46518;48.842;8.926;2022-11-20T03:22:54;96626.41;;;6.60;81.58
1401;BME280;46518;48.842;8.926;2022-11-20T03:25:40;96616.84;;;6.54;81.39
1401;BME280;46518;48.842;8.926;2022-11-20T03:28:09;96616.66;;;6.43;80.94
1401;BME280;46518;48.842;8.926;2022-11-20T03:30:37;96617.34;;;6.39;80.99
1401;BME280;46518;48.842;8.926;2022-11-20T03:33:05;96617.50;;;6.32;81.17
1401;BME280;46518;48.842;8.926;2022-11-20T03:35:34;96611.81;;;6.35;81.68
1401;BME280;46518;48.842;8.926;2022-11-20T03:38:02;96608.75;;;6.26;81.90
1401;BME280;46518;48.842;8.926;2022-11-20T03:40:30;96601.94;;;6.14;82.84
1401;BME280;46518;48.842;8.926;2022-11-20T03:42:58;96602.03;;;6.19;82.86
1401;BME280;46518;48.842;8.926;2022-11-20T03:45:27;96612.38;;;6.25;83.41
1401;BME280;46518;48.842;8.926;2022-11-20T03:47:56;96613.06;;;6.21;84.22
1401;BME280;46518;48.842;8.926;2022-11-20T03:50:24;96608.53;;;6.16;84.05
1401;BME280;46518;48.842;8.926;2022-11-20T03:52:53;96610.47;;;6.09;84.83
1401;BME280;46518;48.842;8.926;2022-11-20T03:55:21;96590.16;;;5.99;85.40
1401;BME280;46518;48.842;8.926;2022-11-20T03:57:49;96607.63;;;6.11;85.36
1401;BME280;46518;48.842;8.926;2022-11-20T04:00:17;96609.22;;;6.00;86.10
1401;BME280;46518;48.842;8.926;2022-11-20T04:02:46;96612.84;;;5.87;87.07
1401;BME280;46518;48.842;8.926;2022-11-20T04:05:15;96586.28;;;5.67;87.56
1401;BME280;46518;48.842;8.926;2022-11-20T04:07:43;96591.25;;;5.80;87.52
1401;BME280;46518;48.842;8.926;2022-11-20T04:10:11;96614.78;;;5.92;88.27
1401;BME280;46518;48.842;8.926;2022-11-20T04:12:39;96603.44;;;5.98;88.74
1401;BME280;46518;48.842;8.926;2022-11-20T04:15:08;96606.72;;;6.05;88.56
1401;BME280;46518;48.842;8.926;2022-11-20T04:17:37;96600.47;;;6.06;88.29
1401;BME280;46518;48.842;8.926;2022-11-20T04:20:07;96599.22;;;6.09;88.45
1401;BME280;46518;48.842;8.926;2022-11-20T04:22:35;96610.59;;;6.02;88.92
1401;BME280;46518;48.842;8.926;2022-11-20T04:25:04;96593.09;;;6.03;88.78
1401;BME280;46518;48.842;8.926;2022-11-20T04:27:32;96604.53;;;6.14;89.22
1401;BME280;46518;48.842;8.926;2022-11-20T04:30:00;96596.28;;;6.17;88.86
1401;BME280;46518;48.842;8.926;2022-11-20T04:32:31;96590.00;;;6.18;88.71
1401;BME280;46518;48.842;8.926;2022-11-20T04:34:59;96592.94;;;6.21;89.03
1401;BME280;46518;48.842;8.926;2022-11-20T04:37:28;96586.72;;;6.11;89.25
1401;BME280;46518;48.842;8.926;2022-11-20T04:39:56;96597.75;;;6.13;89.65
1401;BME280;46518;48.842;8.926;2022-11-20T04:42:24;96588.66;;;6.15;89.77
1401;BME280;46518;48.842;8.926;2022-11-20T04:44:56;96594.56;;;6.22;90.11
1401;BME280;46518;48.842;8.926;2022-11-20T04:47:29;96592.16;;;6.21;90.13
1401;BME280;46518;48.842;8.926;2022-11-20T04:49:57;96597.69;;;6.36;89.76
1401;BME280;46518;48.842;8.926;2022-11-20T04:52:25;96595.31;;;6.46;89.23
1401;BME280;46518;48.842;8.926;2022-11-20T04:54:55;96587.81;;;6.38;88.84
1401;BME280;46518;48.842;8.926;2022-11-20T04:57:23;96595.75;;;6.43;89.00
1401;BME280;46518;48.842;8.926;2022-11-20T04:59:52;96589.41;;;6.39;89.33
1401;BME280;46518;48.842;8.926;2022-11-20T05:02:20;96581.91;;;6.31;88.54
1401;BME280;46518;48.842;8.926;2022-11-20T05:04:48;96598.03;;;6.52;88.69
1401;BME280;46518;48.842;8.926;2022-11-20T05:07:17;96595.16;;;6.53;88.77
1401;BME280;46518;48.842;8.926;2022-11-20T05:09:45;96599.81;;;6.51;88.97
1401;BME280;46518;48.842;8.926;2022-11-20T05:12:14;96587.09;;;6.55;88.88
1401;BME280;46518;48.842;8.926;2022-11-20T05:14:43;96582.06;;;6.65;88.65
1401;BME280;46518;48.842;8.926;2022-11-20T05:17:12;96586.25;;;6.66;88.51
1401;BME280;46518;48.842;8.926;2022-11-20T05:19:40;96595.88;;;6.77;87.53
1401;BME280;46518;48.842;8.926;2022-11-20T05:22:08;96582.38;;;6.68;87.59
1401;BME280;46518;48.842;8.926;2022-11-20T05:24:36;96570.81;;;6.64;87.11
1401;BME280;46518;48.842;8.926;2022-11-20T05:27:05;96587.88;;;6.84;87.08
1401;BME280;46518;48.842;8.926;2022-11-20T05:29:34;96589.06;;;6.76;86.91
1401;BME280;46518;48.842;8.926;2022-11-20T05:32:03;96590.06;;;6.87;86.99
1401;BME280;46518;48.842;8.926;2022-11-20T05:34:32;96588.22;;;6.87;86.62
1401;BME280;46518;48.842;8.926;2022-11-20T05:37:00;96591.88;;;6.86;86.78
1401;BME280;46518;48.842;8.926;2022-11-20T05:39:29;96597.66;;;6.88;86.56
1401;BME280;46518;48.842;8.926;2022-11-20T05:41:57;96592.97;;;6.90;86.53
1401;BME280;46518;48.842;8.926;2022-11-20T05:44:40;96590.63;;;7.06;85.89
1401;BME280;46518;48.842;8.926;2022-11-20T05:47:08;96577.84;;;6.93;85.76
1401;BME280;46518;48.842;8.926;2022-11-20T05:49:37;96586.09;;;7.01;85.70
1401;BME280;46518;48.842;8.926;2022-11-20T05:52:05;96585.00;;;6.97;85.32
1401;BME280;46518;48.842;8.926;2022-11-20T05:54:33;96594.94;;;7.12;84.69
1401;BME280;46518;48.842;8.926;2022-11-20T05:57:02;96590.72;;;7.11;84.97
1401;BME280;46518;48.842;8.926;2022-11-20T05:59:31;96588.25;;;7.04;85.04
1401;BME280;46518;48.842;8.926;2022-11-20T06:02:00;96582.69;;;7.01;85.02
1401;BME280;46518;48.842;8.926;2022-11-20T06:04:28;96581.50;;;7.08;84.66
1401;BME280;46518;48.842;8.926;2022-11-20T06:06:57;96572.00;;;7.02;84.46
1401;BME280;46518;48.842;8.926;2022-11-20T06:09:25;96589.00;;;7.17;84.09
1401;BME280;46518;48.842;8.926;2022-11-20T06:11:53;96580.66;;;7.03;84.69
1401;BME280;46518;48.842;8.926;2022-11-20T06:14:21;96586.44;;;7.05;84.43
1401;BME280;46518;48.842;8.926;2022-11-20T06:16:50;96595.16;;;7.10;84.64
1401;BME280;46518;48.842;8.926;2022-11-20T06:19:21;96581.59;;;7.13;84.10
1401;BME280;46518;48.842;8.926;2022-11-20T06:21:50;96580.34;;;7.16;84.17
1401;BME280;46518;48.842;8.926;2022-11-20T06:24:18;96582.78;;;7.06;84.80
1401;BME280;46518;48.842;8.926;2022-11-20T06:26:46;96582.88;;;7.11;84.59
1401;BME280;46518;48.842;8.926;2022-11-20T06:29:14;96585.41;;;7.06;84.03
1401;BME280;46518;48.842;8.926;2022-11-20T06:31:42;96583.59;;;7.06;84.01
1401;BME280;46518;48.842;8.926;2022-11-20T06:34:11;96593.63;;;6.98;84.35
1401;BME280;46518;48.842;8.926;2022-11-20T06:36:41;96583.09;;;6.93;84.76
1401;BME280;46518;48.842;8.926;2022-11-20T06:39:09;96583.72;;;7.00;84.65
1401;BME280;46518;48.842;8.926;2022-11-20T06:41:37;96580.78;;;6.96;84.70
1401;BME280;46518;48.842;8.926;2022-11-20T06:44:05;96583.16;;;6.98;84.65
1401;BME280;46518;48.842;8.926;2022-11-20T06:46:33;96590.53;;;7.01;84.75
1401;BME280;46518;48.842;8.926;2022-11-20T06:49:19;96589.97;;;6.99;84.92
1401;BME280;46518;48.842;8.926;2022-11-20T06:51:49;96586.34;;;7.00;84.76
1401;BME280;46518;48.842;8.926;2022-11-20T06:54:17;96593.25;;;7.06;84.86
1401;BME280;46518;48.842;8.926;2022-11-20T06:56:46;96594.75;;;7.02;84.62
1401;BME280;46518;48.842;8.926;2022-11-20T06:59:15;96592.16;;;7.02;84.76
1401;BME280;46518;48.842;8.926;2022-11-20T07:01:43;96592.16;;;7.02;84.75
1401;BME280;46518;48.842;8.926;2022-11-20T07:04:11;96592.94;;;7.02;84.58
1401;BME280;46518;48.842;8.926;2022-11-20T07:06:43;96593.41;;;6.99;84.09
1401;BME280;46518;48.842;8.926;2022-11-20T07:09:12;96592.50;;;6.94;84.24
1401;BME280;46518;48.842;8.926;2022-11-20T07:11:40;96602.84;;;7.00;84.72
1401;BME280;46518;48.842;8.926;2022-11-20T07:14:09;96599.75;;;7.03;84.37
1401;BME280;46518;48.842;8.926;2022-11-20T07:16:37;96599.81;;;7.08;84.71
1401;BME280;46518;48.842;8.926;2022-11-20T07:19:05;96602.78;;;7.12;85.42
1401;BME280;46518;48.842;8.926;2022-11-20T07:21:33;96605.06;;;7.08;85.55
1401;BME280;46518;48.842;8.926;2022-11-20T07:24:01;96601.75;;;7.13;85.90
1401;BME280;46518;48.842;8.926;2022-11-20T07:26:30;96610.47;;;7.19;86.24
1401;BME280;46518;48.842;8.926;2022-11-20T07:28:58;96606.59;;;7.21;86.23
1401;BME280;46518;48.842;8.926;2022-11-20T07:31:26;96613.44;;;7.22;86.15
1401;BME280;46518;48.842;8.926;2022-11-20T07:33:56;96615.56;;;7.25;86.18
1401;BME280;46518;48.842;8.926;2022-11-20T07:36:24;96607.63;;;7.20;86.23
1401;BME280;46518;48.842;8.926;2022-11-20T07:38:52;96621.59;;;7.26;86.16
1401;BME280;46518;48.842;8.926;2022-11-20T07:41:21;96625.81;;;7.27;86.25
1401;BME280;46518;48.842;8.926;2022-11-20T07:43:50;96620.25;;;7.23;85.61
1401;BME280;46518;48.842;8.926;2022-11-20T07:46:19;96623.09;;;7.22;86.23
1401;BME280;46518;48.842;8.926;2022-11-20T07:48:47;96622.16;;;7.28;86.12
1401;BME280;46518;48.842;8.926;2022-11-20T07:51:15;96621.50;;;7.21;86.14
1401;BME280;46518;48.842;8.926;2022-11-20T07:53:43;96622.28;;;7.21;86.62
1401;BME280;46518;48.842;8.926;2022-11-20T07:56:11;96625.88;;;7.15;86.96
1401;BME280;46518;48.842;8.926;2022-11-20T07:58:40;96633.72;;;7.15;87.58
1401;BME280;46518;48.842;8.926;2022-11-20T08:01:10;96630.53;;;7.13;87.21
1401;BME280;46518;48.842;8.926;2022-11-20T08:03:38;96638.28;;;7.08;87.09
1401;BME280;46518;48.842;8.926;2022-11-20T08:06:07;96625.28;;;7.13;86.93
1401;BME280;46518;48.842;8.926;2022-11-20T08:08:36;96619.75;;;7.09;86.38
1401;BME280;46518;48.842;8.926;2022-11-20T08:11:08;96641.97;;;7.24;86.08
1401;BME280;46518;48.842;8.926;2022-11-20T08:13:54;96642.53;;;7.26;85.50
1401;BME280;46518;48.842;8.926;2022-11-20T08:16:59;96631.19;;;7.20;84.99
1401;BME280;46518;48.842;8.926;2022-11-20T08:19:27;96639.13;;;7.25;84.96
1401;BME280;46518;48.842;8.926;2022-11-20T08:21:56;96628.47;;;7.15;85.22
1401;BME280;46518;48.842;8.926;2022-11-20T08:24:24;96623.81;;;7.17;84.89
1401;BME280;46518;48.842;8.926;2022-11-20T08:26:53;96635.25;;;7.28;84.42
1401;BME280;46518;48.842;8.926;2022-11-20T08:29:21;96631.88;;;7.16;85.11
1401;BME280;46518;48.842;8.926;2022-11-20T08:31:50;96644.03;;;7.22;85.93
1401;BME280;46518;48.842;8.926;2022-11-20T08:34:20;96648.84;;;7.13;86.57
1401;BME280;46518;48.842;8.926;2022-11-20T08:36:48;96641.59;;;7.03;87.94
1401;BME280;46518;48.842;8.926;2022-11-20T08:39:16;96643.31;;;7.09;87.82
1401;BME280;46518;48.842;8.926;2022-11-20T08:41:44;96658.25;;;6.97;88.71
1401;BME280;46518;48.842;8.926;2022-11-20T08:44:13;96656.81;;;6.89;89.46
1401;BME280;46518;48.842;8.926;2022-11-20T08:46:41;96651.88;;;6.93;89.93
1401;BME280;46518;48.842;8.926;2022-11-20T08:49:11;96650.13;;;6.82;90.85
1401;BME280;46518;48.842;8.926;2022-11-20T08:51:42;96641.69;;;6.80;91.27
1401;BME280;46518;48.842;8.926;2022-11-20T08:54:10;96646.34;;;6.89;90.82
1401;BME280;46518;48.842;8.926;2022-11-20T08:56:38;96657.00;;;6.88;91.80
1401;BME280;46518;48.842;8.926;2022-11-20T08:59:07;96671.91;;;6.99;92.28
1401;BME280;46518;48.842;8.926;2022-11-20T09:01:55;96662.09;;;7.06;92.38
1401;BME280;46518;48.842;8.926;2022-11-20T09:04:24;96661.28;;;7.06;92.38
1401;BME280;46518;48.842;8.926;2022-11-20T09:06:53;96655.81;;;7.07;92.40
1401;BME280;46518;48.842;8.926;2022-11-20T09:09:21;96666.56;;;7.23;91.94
1401;BME280;46518;48.842;8.926;2022-11-20T09:11:50;96673.50;;;7.29;92.11
1401;BME280;46518;48.842;8.926;2022-11-20T09:14:18;96672.00;;;7.21;92.06
1401;BME280;46518;48.842;8.926;2022-11-20T09:16:48;96675.97;;;7.24;91.89
1401;BME280;46518;48.842;8.926;2022-11-20T09:19:16;96666.69;;;7.16;91.90
1401;BME280;46518;48.842;8.926;2022-11-20T09:22:06;96678.38;;;7.25;91.67
1401;BME280;46518;48.842;8.926;2022-11-20T09:24:35;96668.94;;;7.24;91.80
1401;BME280;46518;48.842;8.926;2022-11-20T09:27:04;96677.38;;;7.26;91.13
1401;BME280;46518;48.842;8.926;2022-11-20T09:29:32;96684.28;;;7.32;91.09
1401;BME280;46518;48.842;8.926;2022-11-20T09:32:00;96672.28;;;7.20;90.58
1401;BME280;46518;48.842;8.926;2022-11-20T09:34:28;96693.00;;;7.38;90.60
1401;BME280;46518;48.842;8.926;2022-11-20T09:36:57;96679.88;;;7.21;90.59
1401;BME280;46518;48.842;8.926;2022-11-20T09:39:35;96686.88;;;7.32;91.25
1401;BME280;46518;48.842;8.926;2022-11-20T09:42:16;96697.75;;;7.41;91.24
1401;BME280;46518;48.842;8.926;2022-11-20T09:44:55;96687.03;;;7.26;91.82
1401;BME280;46518;48.842;8.926;2022-11-20T09:47:35;96693.28;;;7.25;92.84
1401;BME280;46518;48.842;8.926;2022-11-20T09:50:19;96700.00;;;7.21;93.39
1401;BME280;46518;48.842;8.926;2022-11-20T09:53:00;96695.22;;;7.29;93.68
1401;BME280;46518;48.842;8.926;2022-11-20T09:55:34;96702.50;;;7.27;93.31
1401;BME280;46518;48.842;8.926;2022-11-20T09:58:05;96702.28;;;7.29;94.09
1401;BME280;46518;48.842;8.926;2022-11-20T10:00:35;96700.19;;;7.31;94.27
1401;BME280;46518;48.842;8.926;2022-11-20T10:03:13;96700.00;;;7.21;94.62
1401;BME280;46518;48.842;8.926;2022-11-20T10:05:44;96698.97;;;6.93;95.62
1401;BME280;46518;48.842;8.926;2022-11-20T10:08:17;96722.22;;;6.78;97.34
1401;BME280;46518;48.842;8.926;2022-11-20T10:10:51;96699.41;;;6.50;98.09
1401;BME280;46518;48.842;8.926;2022-11-20T10:13:30;96708.25;;;6.48;99.49
1401;BME280;46518;48.842;8.926;2022-11-20T10:16:12;96721.13;;;6.26;100.00
1401;BME280;46518;48.842;8.926;2022-11-20T10:18:55;96714.53;;;6.12;100.00
1401;BME280;46518;48.842;8.926;2022-11-20T10:21:30;96693.56;;;5.77;100.00
1401;BME280;46518;48.842;8.926;2022-11-20T10:24:24;96715.81;;;5.79;100.00
1401;BME280;46518;48.842;8.926;2022-11-20T10:27:03;96717.72;;;5.84;100.00
1401;BME280;46518;48.842;8.926;2022-11-20T10:29:36;96708.94;;;5.97;100.00
1401;BME280;46518;48.842;8.926;2022-11-20T10:32:11;96714.06;;;6.15;100.00
1401;BME280;46518;48.842;8.926;2022-11-20T10:34:59;96712.03;;;6.29;100.00
1401;BME280;46518;48.842;8.926;2022-11-20T10:37:31;96710.22;;;6.30;100.00
1401;BME280;46518;48.842;8.926;2022-11-20T10:40:11;96705.88;;;6.35;100.00
1401;BME280;46518;48.842;8.926;2022-11-20T10:42:52;96704.28;;;6.46;100.00
1401;BME280;46518;48.842;8.926;2022-11-20T10:45:44;96702.81;;;6.50;100.00
1401;BME280;46518;48.842;8.926;2022-11-20T10:48:21;96699.16;;;6.63;100.00
1401;BME280;46518;48.842;8.926;2022-11-20T10:51:15;96696.88;;;6.66;100.00
1401;BME280;46518;48.842;8.926;2022-11-20T10:53:57;96703.22;;;6.70;100.00
1401;BME280;46518;48.842;8.926;2022-11-20T10:56:33;96697.22;;;6.70;100.00
1401;BME280;46518;48.842;8.926;2022-11-20T11:02:21;96695.06;;;6.67;100.00
1401;BME280;46518;48.842;8.926;2022-11-20T11:04:54;96697.91;;;6.65;100.00
1401;BME280;46518;48.842;8.926;2022-11-20T11:07:33;96696.53;;;6.51;100.00
1401;BME280;46518;48.842;8.926;2022-11-20T11:10:15;96687.44;;;6.65;100.00
1401;BME280;46518;48.842;8.926;2022-11-20T11:12:50;96683.34;;;6.69;100.00
1401;BME280;46518;48.842;8.926;2022-11-20T11:15:29;96670.16;;;6.64;100.00
1401;BME280;46518;48.842;8.926;2022-11-20T11:18:23;96663.63;;;6.79;100.00
1401;BME280;46518;48.842;8.926;2022-11-20T11:20:58;96660.22;;;6.78;100.00
1401;BME280;46518;48.842;8.926;2022-11-20T11:23:32;96646.59;;;6.76;100.00
1401;BME280;46518;48.842;8.926;2022-11-20T11:26:18;96659.75;;;6.81;100.00
1401;BME280;46518;48.842;8.926;2022-11-20T11:28:54;96645.72;;;6.99;100.00
1401;BME280;46518;48.842;8.926;2022-11-20T11:31:26;96643.22;;;7.04;100.00
1401;BME280;46518;48.842;8.926;2022-11-20T11:34:17;96642.16;;;7.05;100.00
1401;BME280;46518;48.842;8.926;2022-11-20T11:36:54;96637.94;;;7.33;100.00
1401;BME280;46518;48.842;8.926;2022-11-20T11:39:28;96633.53;;;7.50;100.00
1401;BME280;46518;48.842;8.926;2022-11-20T11:42:01;96631.69;;;7.51;100.00
1401;BME280;46518;48.842;8.926;2022-11-20T11:44:33;96614.97;;;7.52;100.00
1401;BME280;46518;48.842;8.926;2022-11-20T11:47:25;96616.13;;;7.27;96.62
1401;BME280;46518;48.842;8.926;2022-11-20T11:50:14;96618.19;;;7.25;96.54
1401;BME280;46518;48.842;8.926;2022-11-20T11:53:06;96606.06;;;7.36;95.03
1401;BME280;46518;48.842;8.926;2022-11-20T11:55:45;96607.22;;;7.28;93.78
1401;BME280;46518;48.842;8.926;2022-11-20T11:58:31;96606.13;;;7.24;91.84
1401;BME280;46518;48.842;8.926;2022-11-20T12:01:15;96604.16;;;7.31;92.27
1401;BME280;46518;48.842;8.926;2022-11-20T12:03:59;96607.00;;;7.30;91.44
1401;BME280;46518;48.842;8.926;2022-11-20T12:06:35;96605.91;;;7.43;91.97
1401;BME280;46518;48.842;8.926;2022-11-20T12:09:10;96610.19;;;7.66;91.69
1401;BME280;46518;48.842;8.926;2022-11-20T12:11:46;96609.63;;;7.81;89.37
1401;BME280;46518;48.842;8.926;2022-11-20T12:14:30;96613.44;;;7.56;86.15
1401;BME280;46518;48.842;8.926;2022-11-20T12:17:10;96612.34;;;7.52;85.26
1401;BME280;46518;48.842;8.926;2022-11-20T12:19:46;96603.16;;;7.66;85.63
1401;BME280;46518;48.842;8.926;2022-11-20T12:22:29;96599.88;;;7.76;85.27
1401;BME280;46518;48.842;8.926;2022-11-20T12:25:09;96602.75;;;7.74;82.47
1401;BME280;46518;48.842;8.926;2022-11-20T12:31:22;96594.66;;;8.15;83.29
1401;BME280;46518;48.842;8.926;2022-11-20T12:34:11;96595.16;;;7.95;79.31
1401;BME280;46518;48.842;8.926;2022-11-20T12:36:49;96597.56;;;7.96;80.22
1401;BME280;46518;48.842;8.926;2022-11-20T12:39:35;96581.97;;;8.07;79.93
1401;BME280;46518;48.842;8.926;2022-11-20T12:42:36;96607.47;;;8.11;78.67
1401;BME280;46518;48.842;8.926;2022-11-20T12:45:35;96602.06;;;8.01;78.43
1401;BME280;46518;48.842;8.926;2022-11-20T12:48:23;96597.00;;;7.94;79.43
1401;BME280;46518;48.842;8.926;2022-11-20T12:51:07;96599.50;;;7.67;77.06
1401;BME280;46518;48.842;8.926;2022-11-20T12:53:49;96598.13;;;7.65;76.39
1401;BME280;46518;48.842;8.926;2022-11-20T12:56:27;96602.75;;;7.74;79.99
1401;BME280;46518;48.842;8.926;2022-11-20T12:59:07;96609.06;;;7.78;77.64
1401;BME280;46518;48.842;8.926;2022-11-20T13:01:43;96593.84;;;7.59;76.09
1401;BME280;46518;48.842;8.926;2022-11-20T13:07:07;96595.34;;;8.27;79.41
1401;BME280;46518;48.842;8.926;2022-11-20T13:09:40;96597.94;;;8.44;79.85
1401;BME280;46518;48.842;8.926;2022-11-20T13:12:14;96590.53;;;8.41;77.03
1401;BME280;46518;48.842;8.926;2022-11-20T13:14:50;96596.97;;;8.11;74.00
1401;BME280;46518;48.842;8.926;2022-11-20T13:17:24;96603.91;;;7.84;74.57
1401;BME280;46518;48.842;8.926;2022-11-20T13:19:56;96602.19;;;7.72;76.08
1401;BME280;46518;48.842;8.926;2022-11-20T13:22:27;96585.75;;;7.94;76.83
1401;BME280;46518;48.842;8.926;2022-11-20T13:24:56;96591.56;;;8.01;77.30
1401;BME280;46518;48.842;8.926;2022-11-20T13:27:25;96576.13;;;7.99;75.82
1401;BME280;46518;48.842;8.926;2022-11-20T13:30:12;96574.03;;;8.02;75.83
1401;BME280;46518;48.842;8.926;2022-11-20T13:32:52;96571.78;;;8.10;76.75
1401;BME280;46518;48.842;8.926;2022-11-20T13:35:29;96569.19;;;8.32;75.22
1401;BME280;46518;48.842;8.926;2022-11-20T13:38:04;96570.13;;;8.43;75.20
1401;BME280;46518;48.842;8.926;2022-11-20T13:40:33;96576.56;;;8.35;72.75
1401;BME280;46518;48.842;8.926;2022-11-20T13:43:15;96561.03;;;7.90;75.21
1401;BME280;46518;48.842;8.926;2022-11-20T13:45:55;96577.97;;;7.65;76.25
1401;BME280;46518;48.842;8.926;2022-11-20T13:48:26;96584.88;;;7.38;76.85
1401;BME280;46518;48.842;8.926;2022-11-20T13:51:12;96582.50;;;7.36;80.36
1401;BME280;46518;48.842;8.926;2022-11-20T13:57:00;96565.44;;;7.33;83.19
1401;BME280;46518;48.842;8.926;2022-11-20T13:59:42;96570.31;;;7.42;83.61
1401;BME280;46518;48.842;8.926;2022-11-20T14:02:16;96564.16;;;7.36;83.88